Observations
| Time | Sensor | AQI | SAQ | Temp °C | Hum % | Pres Pa | CO μg/m³ | H₂S μg/m³ | NO μg/m³ | NO₂ μg/m³ | O₃ μg/m³ | SO₂ μg/m³ | CO₂e PPM | VOC PPM | PM1 μg/m³ | PM2.5 μg/m³ | PM4 μg/m³ | PM10 μg/m³ | TPS µm |
|---|---|---|---|---|---|---|---|---|---|---|---|---|---|---|---|---|---|---|---|
| Wednesday 12 August 2026 | |||||||||||||||||||
| 08:40 | Trim Market St | 2 | 20.3 | 73 | 28,966 | 0.07 | 0 | 1.19 | 29.44 | 59.1 | 0 | 4.99 | 6.3 | 9.36 | |||||
| 08:40 | Trim Patrick St | 2 | 20.6 | 74 | 38,459 | 0 | 11.39 | 1.53 | 30.23 | 44.68 | 0.58 | 8.86 | 13.47 | 14.82 | |||||
| 08:39 | Trim Market St | 2 | 20.2 | 73 | 29,534 | 0.08 | 0.79 | 1.18 | 40.78 | 54.74 | 0 | 4.28 | 6.3 | 9.36 | |||||
| 08:38 | Trim Market St | 2 | 20.2 | 73 | 30,421 | 0.06 | 0 | 1.16 | 55.37 | 42.29 | 0 | 5.7 | 6.79 | 10.59 | |||||
| 08:37 | Trim Market St | 2 | 20.2 | 72 | 31,334 | 0.06 | 0 | 1.12 | 39.93 | 53.99 | 0 | 4.99 | 5.35 | 8.14 | |||||
| 08:36 | Trim Market St | 2 | 20.2 | 72 | 32,425 | 0.08 | 0.55 | 1.1 | 36.69 | 57.56 | 0 | 4.99 | 6.33 | 9.98 | |||||
| 08:36 | Trim Patrick St | 2 | 20.5 | 73 | 38,458 | 0 | 8.97 | 1.38 | 50.79 | 34.48 | 0 | 8.86 | 13.52 | 14.87 | |||||
| 08:35 | Trim Market St | 2 | 20.1 | 72 | 33,578 | 0.06 | 2.02 | 1.09 | 37.05 | 59.4 | 0 | 5.7 | 6.81 | 11.83 | |||||
| 08:34 | Trim Market St | 2 | 20.1 | 72 | 34,943 | 0.01 | 0.63 | 1.1 | 54.86 | 36.8 | 0 | 5.7 | 6.83 | 11.22 | |||||
| 08:33 | Trim Patrick St | 2 | 20.5 | 73 | 38,457 | 0 | 5.49 | 1.1 | 21.9 | 48.53 | 0.11 | 7.14 | 12.09 | 13.3 | |||||
| 08:33 | Trim Market St | 2 | 20.2 | 72 | 36,175 | 0.01 | 0 | 1.12 | 33.39 | 57.81 | 0 | 6.41 | 7.8 | 11.84 | |||||
| 08:32 | Trim Patrick St | 2 | 20.5 | 73 | 38,455 | 0 | 7.52 | 1.1 | 18.09 | 59.07 | 0.13 | 6.29 | 11.38 | 12.52 | |||||
| 08:31 | Trim Patrick St | 2 | 20.5 | 73 | 38,454 | 0 | 10.84 | 1.1 | 24.26 | 54.49 | 0.25 | 8.86 | 12.85 | 14.14 | |||||
| 08:30 | Trim Patrick St | 2 | 20.5 | 73 | 38,451 | 0 | 13.23 | 1.09 | 38.82 | 59.19 | 0 | 8 | 11.4 | 12.54 | |||||
| 08:30 | Trim Market St | 2 | 20.2 | 72 | 36,958 | 0 | 0 | 1.11 | 40.01 | 54.51 | 0 | 4.99 | 5.88 | 8.76 | |||||
| 08:29 | Trim Patrick St | 2 | 20.5 | 73 | 38,448 | 0 | 10.02 | 1.1 | 25.6 | 40.48 | 0 | 8.86 | 13.56 | 14.91 | |||||
| 08:29 | Trim Market St | 2 | 20.1 | 72 | 37,961 | 0 | 0 | 1.09 | 34.84 | 56.73 | 0 | 5.7 | 6.37 | 9.38 | |||||
| 08:28 | Trim Patrick St | 2 | 20.5 | 72 | 38,444 | 0 | 10.12 | 1.12 | 23.6 | 62.29 | 0.05 | 8.86 | 11.48 | 12.63 | |||||
| 08:28 | Trim Market St | 2 | 20.1 | 71 | 39,174 | 0 | 0.05 | 1.11 | 43.78 | 51.19 | 0 | 5.7 | 6.38 | 10 | |||||
| 08:27 | Trim Patrick St | 2 | 20.5 | 72 | 38,438 | 0 | 11.31 | 1.15 | 31.98 | 56.88 | 0 | 9.71 | 15.02 | 16.52 | |||||